sensor_id;sensor_type;location;lat;lon;timestamp;pressure;altitude;pressure_sealevel;temperature
65316;BMP280;51920;53.952;10.292;2024-02-26T00:02:07;99924.38;;;1.76
65316;BMP280;51920;53.952;10.292;2024-02-26T00:04:34;99924.13;;;1.68
65316;BMP280;51920;53.952;10.292;2024-02-26T00:07:01;99926.59;;;1.73
65316;BMP280;51920;53.952;10.292;2024-02-26T00:09:28;99928.69;;;1.68
65316;BMP280;51920;53.952;10.292;2024-02-26T00:11:55;99925.25;;;1.67
65316;BMP280;51920;53.952;10.292;2024-02-26T00:14:22;99933.47;;;1.62
65316;BMP280;51920;53.952;10.292;2024-02-26T00:16:49;99928.91;;;1.63
65316;BMP280;51920;53.952;10.292;2024-02-26T00:19:16;99928.78;;;1.59
65316;BMP280;51920;53.952;10.292;2024-02-26T00:21:43;99940.59;;;1.58
65316;BMP280;51920;53.952;10.292;2024-02-26T00:24:10;99938.69;;;1.59
65316;BMP280;51920;53.952;10.292;2024-02-26T00:26:36;99938.56;;;1.55
65316;BMP280;51920;53.952;10.292;2024-02-26T00:29:03;99941.56;;;1.53
65316;BMP280;51920;53.952;10.292;2024-02-26T00:31:30;99948.22;;;1.47
65316;BMP280;51920;53.952;10.292;2024-02-26T00:33:57;99944.25;;;1.53
65316;BMP280;51920;53.952;10.292;2024-02-26T00:36:24;99947.44;;;1.47
65316;BMP280;51920;53.952;10.292;2024-02-26T00:38:51;99943.69;;;1.48
65316;BMP280;51920;53.952;10.292;2024-02-26T00:41:18;99941.66;;;1.45
65316;BMP280;51920;53.952;10.292;2024-02-26T00:43:47;99946.75;;;1.38
65316;BMP280;51920;53.952;10.292;2024-02-26T00:46:14;99948.97;;;1.36
65316;BMP280;51920;53.952;10.292;2024-02-26T00:48:41;99946.75;;;1.38
65316;BMP280;51920;53.952;10.292;2024-02-26T00:51:07;99948.66;;;1.37
65316;BMP280;51920;53.952;10.292;2024-02-26T00:53:35;99944.00;;;1.34
65316;BMP280;51920;53.952;10.292;2024-02-26T00:56:02;99942.50;;;1.37
65316;BMP280;51920;53.952;10.292;2024-02-26T00:58:29;99955.31;;;1.31
65316;BMP280;51920;53.952;10.292;2024-02-26T01:00:55;99952.06;;;1.25
65316;BMP280;51920;53.952;10.292;2024-02-26T01:03:23;99952.84;;;1.26
65316;BMP280;51920;53.952;10.292;2024-02-26T01:05:50;99953.91;;;1.12
65316;BMP280;51920;53.952;10.292;2024-02-26T01:08:17;99957.09;;;1.06
65316;BMP280;51920;53.952;10.292;2024-02-26T01:10:44;99945.66;;;1.05
65316;BMP280;51920;53.952;10.292;2024-02-26T01:13:11;99959.31;;;1.04
65316;BMP280;51920;53.952;10.292;2024-02-26T01:15:37;99946.88;;;1.08
65316;BMP280;51920;53.952;10.292;2024-02-26T01:18:04;99951.97;;;1.01
65316;BMP280;51920;53.952;10.292;2024-02-26T01:20:31;99948.25;;;1.14
65316;BMP280;51920;53.952;10.292;2024-02-26T01:22:58;99955.34;;;1.10
65316;BMP280;51920;53.952;10.292;2024-02-26T01:25:25;99964.06;;;0.98
65316;BMP280;51920;53.952;10.292;2024-02-26T01:27:52;99960.03;;;0.92
65316;BMP280;51920;53.952;10.292;2024-02-26T01:30:19;99961.03;;;0.87
65316;BMP280;51920;53.952;10.292;2024-02-26T01:32:45;99960.75;;;0.80
65316;BMP280;51920;53.952;10.292;2024-02-26T01:35:12;99967.97;;;0.80
65316;BMP280;51920;53.952;10.292;2024-02-26T01:37:39;99961.84;;;0.79
65316;BMP280;51920;53.952;10.292;2024-02-26T01:40:07;99962.19;;;0.77
65316;BMP280;51920;53.952;10.292;2024-02-26T01:42:34;99973.16;;;0.76
65316;BMP280;51920;53.952;10.292;2024-02-26T01:45:01;99972.38;;;0.75
65316;BMP280;51920;53.952;10.292;2024-02-26T01:47:28;99966.16;;;0.71
65316;BMP280;51920;53.952;10.292;2024-02-26T01:49:55;99972.25;;;0.72
65316;BMP280;51920;53.952;10.292;2024-02-26T01:52:22;99967.56;;;0.69
65316;BMP280;51920;53.952;10.292;2024-02-26T01:54:50;99962.91;;;0.66
65316;BMP280;51920;53.952;10.292;2024-02-26T01:57:17;99967.31;;;0.62
65316;BMP280;51920;53.952;10.292;2024-02-26T01:59:45;99973.41;;;0.62
65316;BMP280;51920;53.952;10.292;2024-02-26T02:02:12;99970.09;;;0.65
65316;BMP280;51920;53.952;10.292;2024-02-26T02:04:40;99969.78;;;0.67
65316;BMP280;51920;53.952;10.292;2024-02-26T02:07:07;99965.56;;;0.66
65316;BMP280;51920;53.952;10.292;2024-02-26T02:09:34;99972.25;;;0.72
65316;BMP280;51920;53.952;10.292;2024-02-26T02:12:02;99969.78;;;0.67
65316;BMP280;51920;53.952;10.292;2024-02-26T02:14:29;99976.69;;;0.68
65316;BMP280;51920;53.952;10.292;2024-02-26T02:16:56;99982.38;;;0.57
65316;BMP280;51920;53.952;10.292;2024-02-26T02:19:23;99977.41;;;0.47
65316;BMP280;51920;53.952;10.292;2024-02-26T02:21:49;99974.94;;;0.42
65316;BMP280;51920;53.952;10.292;2024-02-26T02:24:16;99967.13;;;0.37
65316;BMP280;51920;53.952;10.292;2024-02-26T02:26:43;99971.81;;;0.40
65316;BMP280;51920;53.952;10.292;2024-02-26T02:29:11;99956.47;;;0.37
65316;BMP280;51920;53.952;10.292;2024-02-26T02:31:38;99963.81;;;0.40
65316;BMP280;51920;53.952;10.292;2024-02-26T02:34:05;99954.13;;;0.35
65316;BMP280;51920;53.952;10.292;2024-02-26T02:36:32;99963.56;;;0.33
65316;BMP280;51920;53.952;10.292;2024-02-26T02:38:59;99960.78;;;0.29
65316;BMP280;51920;53.952;10.292;2024-02-26T02:41:26;99967.53;;;0.27
65316;BMP280;51920;53.952;10.292;2024-02-26T02:43:54;99966.88;;;0.30
65316;BMP280;51920;53.952;10.292;2024-02-26T02:46:20;99960.00;;;0.29
65316;BMP280;51920;53.952;10.292;2024-02-26T02:48:48;99957.97;;;0.26
65316;BMP280;51920;53.952;10.292;2024-02-26T02:51:16;99967.22;;;0.19
65316;BMP280;51920;53.952;10.292;2024-02-26T02:53:43;99962.88;;;0.15
65316;BMP280;51920;53.952;10.292;2024-02-26T02:56:10;99972.94;;;0.09
65316;BMP280;51920;53.952;10.292;2024-02-26T02:58:37;99974.34;;;0.07
65316;BMP280;51920;53.952;10.292;2024-02-26T03:01:04;99980.13;;;0.09
65316;BMP280;51920;53.952;10.292;2024-02-26T03:03:31;99977.88;;;0.19
65316;BMP280;51920;53.952;10.292;2024-02-26T03:05:57;99981.19;;;0.25
65316;BMP280;51920;53.952;10.292;2024-02-26T03:08:24;99987.91;;;0.23
65316;BMP280;51920;53.952;10.292;2024-02-26T03:10:52;99986.09;;;0.14
65316;BMP280;51920;53.952;10.292;2024-02-26T03:13:19;99987.78;;;0.19
65316;BMP280;51920;53.952;10.292;2024-02-26T03:15:46;99989.94;;;0.26
65316;BMP280;51920;53.952;10.292;2024-02-26T03:18:13;99990.41;;;0.28
65316;BMP280;51920;53.952;10.292;2024-02-26T03:20:40;99988.84;;;0.27
65316;BMP280;51920;53.952;10.292;2024-02-26T03:23:06;99993.50;;;0.30
65316;BMP280;51920;53.952;10.292;2024-02-26T03:25:36;99997.94;;;0.26
65316;BMP280;51920;53.952;10.292;2024-02-26T03:28:03;99987.91;;;0.23
65316;BMP280;51920;53.952;10.292;2024-02-26T03:30:30;99986.38;;;0.22
65316;BMP280;51920;53.952;10.292;2024-02-26T03:32:57;99989.66;;;0.18
65316;BMP280;51920;53.952;10.292;2024-02-26T03:35:24;99992.19;;;0.15
65316;BMP280;51920;53.952;10.292;2024-02-26T03:37:51;99997.81;;;0.13
65316;BMP280;51920;53.952;10.292;2024-02-26T03:40:18;99995.78;;;0.10
65316;BMP280;51920;53.952;10.292;2024-02-26T03:42:46;99993.88;;;0.19
65316;BMP280;51920;53.952;10.292;2024-02-26T03:45:13;100002.88;;;0.36
65316;BMP280;51920;53.952;10.292;2024-02-26T03:47:40;100004.34;;;0.25
65316;BMP280;51920;53.952;10.292;2024-02-26T03:50:07;100005.19;;;0.16
65316;BMP280;51920;53.952;10.292;2024-02-26T03:52:34;100006.44;;;0.10
65316;BMP280;51920;53.952;10.292;2024-02-26T03:55:01;100004.28;;;0.04
65316;BMP280;51920;53.952;10.292;2024-02-26T03:57:28;100010.06;;;0.06
65316;BMP280;51920;53.952;10.292;2024-02-26T03:59:56;100011.34;;;-0.01
65316;BMP280;51920;53.952;10.292;2024-02-26T04:02:22;100011.66;;;-0.02
65316;BMP280;51920;53.952;10.292;2024-02-26T04:04:50;100021.69;;;-0.08
65316;BMP280;51920;53.952;10.292;2024-02-26T04:07:16;100014.16;;;-0.06
65316;BMP280;51920;53.952;10.292;2024-02-26T04:09:44;100020.59;;;-0.07
65316;BMP280;51920;53.952;10.292;2024-02-26T04:12:11;100024.66;;;-0.09
65316;BMP280;51920;53.952;10.292;2024-02-26T04:14:38;100023.25;;;-0.07
65316;BMP280;51920;53.952;10.292;2024-02-26T04:17:04;100037.50;;;-0.11
65316;BMP280;51920;53.952;10.292;2024-02-26T04:19:31;100032.66;;;-0.09
65316;BMP280;51920;53.952;10.292;2024-02-26T04:21:59;100031.09;;;-0.10
65316;BMP280;51920;53.952;10.292;2024-02-26T04:24:26;100038.78;;;-0.09
65316;BMP280;51920;53.952;10.292;2024-02-26T04:26:53;100032.47;;;-0.04
65316;BMP280;51920;53.952;10.292;2024-02-26T04:29:20;100041.59;;;-0.05
65316;BMP280;51920;53.952;10.292;2024-02-26T04:31:46;100044.09;;;-0.09
65316;BMP280;51920;53.952;10.292;2024-02-26T04:34:14;100054.09;;;-0.14
65316;BMP280;51920;53.952;10.292;2024-02-26T04:36:41;100055.69;;;-0.13
65316;BMP280;51920;53.952;10.292;2024-02-26T04:39:09;100068.06;;;-0.17
65316;BMP280;51920;53.952;10.292;2024-02-26T04:41:36;100075.41;;;-0.14
65316;BMP280;51920;53.952;10.292;2024-02-26T04:44:04;100080.25;;;-0.08
65316;BMP280;51920;53.952;10.292;2024-02-26T04:46:31;100081.00;;;-0.07
65316;BMP280;51920;53.952;10.292;2024-02-26T04:48:57;100087.16;;;-0.07
65316;BMP280;51920;53.952;10.292;2024-02-26T04:51:25;100090.13;;;-0.08
65316;BMP280;51920;53.952;10.292;2024-02-26T04:53:52;100091.66;;;-0.07
65316;BMP280;51920;53.952;10.292;2024-02-26T04:56:21;100093.41;;;-0.11
65316;BMP280;51920;53.952;10.292;2024-02-26T04:58:48;100095.91;;;-0.06
65316;BMP280;51920;53.952;10.292;2024-02-26T05:01:15;100100.59;;;-0.03
65316;BMP280;51920;53.952;10.292;2024-02-26T05:03:43;100100.28;;;-0.02
65316;BMP280;51920;53.952;10.292;2024-02-26T05:06:10;100106.84;;;0.10
65316;BMP280;51920;53.952;10.292;2024-02-26T05:08:37;100105.91;;;0.14
65316;BMP280;51920;53.952;10.292;2024-02-26T05:11:05;100112.59;;;0.21
65316;BMP280;51920;53.952;10.292;2024-02-26T05:13:35;100118.53;;;0.26
65316;BMP280;51920;53.952;10.292;2024-02-26T05:16:02;100115.09;;;0.26
65316;BMP280;51920;53.952;10.292;2024-02-26T05:18:29;100120.69;;;0.33
65316;BMP280;51920;53.952;10.292;2024-02-26T05:20:56;100119.91;;;0.41
65316;BMP280;51920;53.952;10.292;2024-02-26T05:23:23;100125.97;;;0.50
65316;BMP280;51920;53.952;10.292;2024-02-26T05:25:50;100124.69;;;0.56
65316;BMP280;51920;53.952;10.292;2024-02-26T05:28:17;100126.09;;;0.63
65316;BMP280;51920;53.952;10.292;2024-02-26T05:30:47;100128.44;;;0.64
65316;BMP280;51920;53.952;10.292;2024-02-26T05:33:14;100137.34;;;0.68
65316;BMP280;51920;53.952;10.292;2024-02-26T05:35:43;100137.94;;;0.74
65316;BMP280;51920;53.952;10.292;2024-02-26T05:38:10;100143.09;;;0.79
65316;BMP280;51920;53.952;10.292;2024-02-26T05:40:37;100140.88;;;0.90
65316;BMP280;51920;53.952;10.292;2024-02-26T05:43:05;100147.25;;;0.98
65316;BMP280;51920;53.952;10.292;2024-02-26T05:45:31;100144.53;;;1.06
65316;BMP280;51920;53.952;10.292;2024-02-26T05:47:59;100145.06;;;1.00
65316;BMP280;51920;53.952;10.292;2024-02-26T05:50:26;100150.50;;;1.12
65316;BMP280;51920;53.952;10.292;2024-02-26T05:52:53;100155.31;;;1.19
65316;BMP280;51920;53.952;10.292;2024-02-26T05:55:20;100158.00;;;1.10
65316;BMP280;51920;53.952;10.292;2024-02-26T05:57:47;100164.59;;;1.12
65316;BMP280;51920;53.952;10.292;2024-02-26T06:00:14;100171.16;;;1.15
65316;BMP280;51920;53.952;10.292;2024-02-26T06:02:41;100166.69;;;1.07
65316;BMP280;51920;53.952;10.292;2024-02-26T06:05:08;100163.22;;;1.06
65316;BMP280;51920;53.952;10.292;2024-02-26T06:07:35;100177.34;;;1.07
65316;BMP280;51920;53.952;10.292;2024-02-26T06:10:03;100170.53;;;1.18
65316;BMP280;51920;53.952;10.292;2024-02-26T06:12:31;100175.78;;;1.06
65316;BMP280;51920;53.952;10.292;2024-02-26T06:14:59;100186.13;;;1.07
65316;BMP280;51920;53.952;10.292;2024-02-26T06:17:28;100184.53;;;1.06
65316;BMP280;51920;53.952;10.292;2024-02-26T06:19:54;100180.66;;;1.04
65316;BMP280;51920;53.952;10.292;2024-02-26T06:22:21;100192.22;;;1.08
65316;BMP280;51920;53.952;10.292;2024-02-26T06:24:48;100197.38;;;1.13
65316;BMP280;51920;53.952;10.292;2024-02-26T06:27:15;100201.25;;;1.24
65316;BMP280;51920;53.952;10.292;2024-02-26T06:29:42;100198.41;;;1.29
65316;BMP280;51920;53.952;10.292;2024-02-26T06:32:09;100202.00;;;1.33
65316;BMP280;51920;53.952;10.292;2024-02-26T06:34:36;100205.31;;;1.30
65316;BMP280;51920;53.952;10.292;2024-02-26T06:37:05;100205.38;;;1.13
65316;BMP280;51920;53.952;10.292;2024-02-26T06:39:32;100206.06;;;1.31
65316;BMP280;51920;53.952;10.292;2024-02-26T06:41:59;100213.94;;;1.27
65316;BMP280;51920;53.952;10.292;2024-02-26T06:44:29;100224.16;;;1.25
65316;BMP280;51920;53.952;10.292;2024-02-26T06:46:59;100223.88;;;1.18
65316;BMP280;51920;53.952;10.292;2024-02-26T06:49:26;100221.22;;;1.18
65316;BMP280;51920;53.952;10.292;2024-02-26T06:51:54;100218.97;;;1.29
65316;BMP280;51920;53.952;10.292;2024-02-26T06:54:21;100217.31;;;1.37
65316;BMP280;51920;53.952;10.292;2024-02-26T06:56:48;100218.88;;;1.38
65316;BMP280;51920;53.952;10.292;2024-02-26T06:59:15;100224.44;;;1.32
65316;BMP280;51920;53.952;10.292;2024-02-26T07:01:42;100230.78;;;1.19
65316;BMP280;51920;53.952;10.292;2024-02-26T07:04:09;100228.06;;;1.28
65316;BMP280;51920;53.952;10.292;2024-02-26T07:06:37;100224.78;;;1.22
65316;BMP280;51920;53.952;10.292;2024-02-26T07:09:04;100236.75;;;1.16
65316;BMP280;51920;53.952;10.292;2024-02-26T07:11:31;100232.69;;;1.10
65316;BMP280;51920;53.952;10.292;2024-02-26T07:13:58;100239.75;;;1.14
65316;BMP280;51920;53.952;10.292;2024-02-26T07:16:25;100241.25;;;1.24
65316;BMP280;51920;53.952;10.292;2024-02-26T07:18:53;100237.22;;;1.18
65316;BMP280;51920;53.952;10.292;2024-02-26T07:21:20;100234.84;;;1.17
65316;BMP280;51920;53.952;10.292;2024-02-26T07:23:46;100232.94;;;1.26
65316;BMP280;51920;53.952;10.292;2024-02-26T07:26:13;100229.88;;;1.36
65316;BMP280;51920;53.952;10.292;2024-02-26T07:28:41;100238.78;;;1.40
65316;BMP280;51920;53.952;10.292;2024-02-26T07:31:07;100243.63;;;1.47
65316;BMP280;51920;53.952;10.292;2024-02-26T07:33:34;100241.06;;;1.59
65316;BMP280;51920;53.952;10.292;2024-02-26T07:36:01;100241.25;;;1.54
65316;BMP280;51920;53.952;10.292;2024-02-26T07:38:29;100244.09;;;1.49
65316;BMP280;51920;53.952;10.292;2024-02-26T07:40:57;100245.31;;;1.60
65316;BMP280;51920;53.952;10.292;2024-02-26T07:43:24;100244.63;;;1.42
65316;BMP280;51920;53.952;10.292;2024-02-26T07:45:51;100257.34;;;1.37
65316;BMP280;51920;53.952;10.292;2024-02-26T07:48:18;100257.88;;;1.51
65316;BMP280;51920;53.952;10.292;2024-02-26T07:50:45;100263.72;;;1.53
65316;BMP280;51920;53.952;10.292;2024-02-26T07:53:12;100259.28;;;1.57
65316;BMP280;51920;53.952;10.292;2024-02-26T07:55:39;100263.13;;;1.68
65316;BMP280;51920;53.952;10.292;2024-02-26T07:58:06;100270.69;;;1.66
65316;BMP280;51920;53.952;10.292;2024-02-26T08:00:34;100273.31;;;1.75
65316;BMP280;51920;53.952;10.292;2024-02-26T08:03:02;100278.28;;;1.85
65316;BMP280;51920;53.952;10.292;2024-02-26T08:05:29;100282.41;;;1.95
65316;BMP280;51920;53.952;10.292;2024-02-26T08:07:55;100286.22;;;2.15
65316;BMP280;51920;53.952;10.292;2024-02-26T08:10:23;100295.72;;;2.25
65316;BMP280;51920;53.952;10.292;2024-02-26T08:12:50;100301.56;;;2.39
65316;BMP280;51920;53.952;10.292;2024-02-26T08:15:17;100298.81;;;2.48
65316;BMP280;51920;53.952;10.292;2024-02-26T08:17:45;100302.75;;;2.50
65316;BMP280;51920;53.952;10.292;2024-02-26T08:20:14;100307.22;;;2.59
65316;BMP280;51920;53.952;10.292;2024-02-26T08:22:41;100313.88;;;2.53
65316;BMP280;51920;53.952;10.292;2024-02-26T08:25:08;100314.94;;;2.73
65316;BMP280;51920;53.952;10.292;2024-02-26T08:27:36;100317.84;;;2.80
65316;BMP280;51920;53.952;10.292;2024-02-26T08:30:03;100318.00;;;2.96
65316;BMP280;51920;53.952;10.292;2024-02-26T08:32:30;100312.88;;;3.03
65316;BMP280;51920;53.952;10.292;2024-02-26T08:34:57;100320.56;;;3.04
65316;BMP280;51920;53.952;10.292;2024-02-26T08:37:24;100316.47;;;3.19
65316;BMP280;51920;53.952;10.292;2024-02-26T08:39:51;100327.84;;;3.28
65316;BMP280;51920;53.952;10.292;2024-02-26T08:42:17;100324.94;;;3.46
65316;BMP280;51920;53.952;10.292;2024-02-26T08:44:44;100326.63;;;3.51
65316;BMP280;51920;53.952;10.292;2024-02-26T08:47:11;100329.53;;;3.70
65316;BMP280;51920;53.952;10.292;2024-02-26T08:49:42;100347.00;;;3.80
65316;BMP280;51920;53.952;10.292;2024-02-26T08:52:09;100341.41;;;3.85
65316;BMP280;51920;53.952;10.292;2024-02-26T08:54:36;100347.59;;;3.85
65316;BMP280;51920;53.952;10.292;2024-02-26T08:57:03;100340.31;;;3.98
65316;BMP280;51920;53.952;10.292;2024-02-26T08:59:30;100337.19;;;3.96
65316;BMP280;51920;53.952;10.292;2024-02-26T09:01:57;100346.19;;;4.04
65316;BMP280;51920;53.952;10.292;2024-02-26T09:04:24;100337.22;;;3.72
65316;BMP280;51920;53.952;10.292;2024-02-26T09:06:51;100348.81;;;3.76
65316;BMP280;51920;53.952;10.292;2024-02-26T09:09:18;100342.34;;;3.40
65316;BMP280;51920;53.952;10.292;2024-02-26T09:11:45;100349.84;;;3.46
65316;BMP280;51920;53.952;10.292;2024-02-26T09:14:12;100351.50;;;3.63
65316;BMP280;51920;53.952;10.292;2024-02-26T09:16:39;100348.69;;;3.60
65316;BMP280;51920;53.952;10.292;2024-02-26T09:19:06;100356.72;;;3.60
65316;BMP280;51920;53.952;10.292;2024-02-26T09:21:33;100361.13;;;3.77
65316;BMP280;51920;53.952;10.292;2024-02-26T09:24:00;100360.88;;;3.70
65316;BMP280;51920;53.952;10.292;2024-02-26T09:26:27;100365.09;;;3.58
65316;BMP280;51920;53.952;10.292;2024-02-26T09:28:53;100364.00;;;3.47
65316;BMP280;51920;53.952;10.292;2024-02-26T09:31:20;100369.78;;;3.37
65316;BMP280;51920;53.952;10.292;2024-02-26T09:33:47;100352.28;;;3.27
65316;BMP280;51920;53.952;10.292;2024-02-26T09:36:14;100352.75;;;3.41
65316;BMP280;51920;53.952;10.292;2024-02-26T09:38:41;100362.88;;;3.36
65316;BMP280;51920;53.952;10.292;2024-02-26T09:41:16;100361.09;;;3.40
65316;BMP280;51920;53.952;10.292;2024-02-26T09:43:45;100365.31;;;3.41
65316;BMP280;51920;53.952;10.292;2024-02-26T09:46:15;100375.25;;;3.53
65316;BMP280;51920;53.952;10.292;2024-02-26T09:48:44;100375.69;;;3.55
65316;BMP280;51920;53.952;10.292;2024-02-26T09:51:12;100383.84;;;3.58
65316;BMP280;51920;53.952;10.292;2024-02-26T09:53:39;100382.63;;;3.56
65316;BMP280;51920;53.952;10.292;2024-02-26T09:56:11;100383.84;;;3.58
65316;BMP280;51920;53.952;10.292;2024-02-26T09:58:39;100387.31;;;3.59
65316;BMP280;51920;53.952;10.292;2024-02-26T10:01:11;100387.56;;;3.66
65316;BMP280;51920;53.952;10.292;2024-02-26T10:03:43;100397.69;;;3.73
65316;BMP280;51920;53.952;10.292;2024-02-26T10:06:11;100406.16;;;3.87
65316;BMP280;51920;53.952;10.292;2024-02-26T10:08:41;100401.28;;;3.89
65316;BMP280;51920;53.952;10.292;2024-02-26T10:11:10;100405.94;;;3.92
65316;BMP280;51920;53.952;10.292;2024-02-26T10:13:36;100396.91;;;3.97
65316;BMP280;51920;53.952;10.292;2024-02-26T10:16:04;100398.78;;;4.09
65316;BMP280;51920;53.952;10.292;2024-02-26T10:18:46;100401.47;;;4.09
65316;BMP280;51920;53.952;10.292;2024-02-26T10:21:19;100413.06;;;4.00
65316;BMP280;51920;53.952;10.292;2024-02-26T10:23:47;100416.31;;;4.06
65316;BMP280;51920;53.952;10.292;2024-02-26T10:26:20;100416.41;;;4.10
65316;BMP280;51920;53.952;10.292;2024-02-26T10:28:47;100419.31;;;4.17
65316;BMP280;51920;53.952;10.292;2024-02-26T10:31:15;100421.22;;;4.16
65316;BMP280;51920;53.952;10.292;2024-02-26T10:33:43;100424.63;;;4.29
65316;BMP280;51920;53.952;10.292;2024-02-26T10:36:10;100425.78;;;4.28
65316;BMP280;51920;53.952;10.292;2024-02-26T10:38:37;100427.72;;;4.43
65316;BMP280;51920;53.952;10.292;2024-02-26T10:41:06;100428.59;;;4.60
65316;BMP280;51920;53.952;10.292;2024-02-26T10:43:33;100433.16;;;4.59
65316;BMP280;51920;53.952;10.292;2024-02-26T10:45:59;100432.66;;;4.41
65316;BMP280;51920;53.952;10.292;2024-02-26T10:48:27;100434.47;;;4.37
65316;BMP280;51920;53.952;10.292;2024-02-26T10:50:54;100439.41;;;4.35
65316;BMP280;51920;53.952;10.292;2024-02-26T10:53:23;100442.13;;;4.51
65316;BMP280;51920;53.952;10.292;2024-02-26T10:56:00;100444.06;;;4.38
65316;BMP280;51920;53.952;10.292;2024-02-26T10:58:28;100447.41;;;4.47
65316;BMP280;51920;53.952;10.292;2024-02-26T11:00:57;100449.66;;;4.61
65316;BMP280;51920;53.952;10.292;2024-02-26T11:03:24;100456.97;;;4.61
65316;BMP280;51920;53.952;10.292;2024-02-26T11:05:51;100456.97;;;4.61
65316;BMP280;51920;53.952;10.292;2024-02-26T11:08:20;100449.34;;;4.63
65316;BMP280;51920;53.952;10.292;2024-02-26T11:10:55;100453.69;;;4.68
65316;BMP280;51920;53.952;10.292;2024-02-26T11:13:27;100450.34;;;4.71
65316;BMP280;51920;53.952;10.292;2024-02-26T11:15:57;100464.38;;;4.80
65316;BMP280;51920;53.952;10.292;2024-02-26T11:18:27;100458.50;;;4.74
65316;BMP280;51920;53.952;10.292;2024-02-26T11:20:54;100452.09;;;4.79
65316;BMP280;51920;53.952;10.292;2024-02-26T11:23:23;100455.72;;;4.71
65316;BMP280;51920;53.952;10.292;2024-02-26T11:25:52;100463.72;;;4.83
65316;BMP280;51920;53.952;10.292;2024-02-26T11:28:21;100460.50;;;4.65
65316;BMP280;51920;53.952;10.292;2024-02-26T11:30:49;100462.50;;;4.68
65316;BMP280;51920;53.952;10.292;2024-02-26T11:33:16;100464.44;;;4.68
65316;BMP280;51920;53.952;10.292;2024-02-26T11:35:43;100460.47;;;4.77
65316;BMP280;51920;53.952;10.292;2024-02-26T11:38:17;100463.16;;;4.77
65316;BMP280;51920;53.952;10.292;2024-02-26T11:40:46;100460.91;;;4.79
65316;BMP280;51920;53.952;10.292;2024-02-26T11:43:13;100457.53;;;4.82
65316;BMP280;51920;53.952;10.292;2024-02-26T11:48:20;100462.44;;;4.93
65316;BMP280;51920;53.952;10.292;2024-02-26T11:50:54;100466.94;;;4.89
65316;BMP280;51920;53.952;10.292;2024-02-26T11:53:31;100468.41;;;5.02
65316;BMP280;51920;53.952;10.292;2024-02-26T11:56:22;100471.53;;;5.04
65316;BMP280;51920;53.952;10.292;2024-02-26T11:58:57;100474.34;;;5.23
65316;BMP280;51920;53.952;10.292;2024-02-26T12:04:09;100481.50;;;5.03
65316;BMP280;51920;53.952;10.292;2024-02-26T12:06:42;100486.31;;;5.26
65316;BMP280;51920;53.952;10.292;2024-02-26T12:09:09;100485.72;;;5.33
65316;BMP280;51920;53.952;10.292;2024-02-26T12:11:40;100486.00;;;5.43
65316;BMP280;51920;53.952;10.292;2024-02-26T12:14:09;100494.22;;;5.51
65316;BMP280;51920;53.952;10.292;2024-02-26T12:16:38;100492.16;;;5.44
65316;BMP280;51920;53.952;10.292;2024-02-26T12:19:06;100497.69;;;5.51
65316;BMP280;51920;53.952;10.292;2024-02-26T12:21:37;100497.69;;;5.51
65316;BMP280;51920;53.952;10.292;2024-02-26T12:24:11;100490.41;;;5.52
65316;BMP280;51920;53.952;10.292;2024-02-26T12:26:42;100506.16;;;5.53
65316;BMP280;51920;53.952;10.292;2024-02-26T12:29:09;100498.72;;;5.62
65316;BMP280;51920;53.952;10.292;2024-02-26T12:31:39;100502.72;;;5.69
65316;BMP280;51920;53.952;10.292;2024-02-26T12:34:06;100503.75;;;5.80
65316;BMP280;51920;53.952;10.292;2024-02-26T12:36:34;100510.44;;;5.86
65316;BMP280;51920;53.952;10.292;2024-02-26T12:39:05;100504.25;;;5.70
65316;BMP280;51920;53.952;10.292;2024-02-26T12:41:33;100510.19;;;5.59
65316;BMP280;51920;53.952;10.292;2024-02-26T12:44:00;100515.00;;;5.54
65316;BMP280;51920;53.952;10.292;2024-02-26T12:46:27;100506.00;;;5.46
65316;BMP280;51920;53.952;10.292;2024-02-26T12:48:58;100513.81;;;5.51
65316;BMP280;51920;53.952;10.292;2024-02-26T12:51:26;100512.88;;;5.59
65316;BMP280;51920;53.952;10.292;2024-02-26T12:53:55;100521.19;;;5.70
65316;BMP280;51920;53.952;10.292;2024-02-26T12:56:22;100525.75;;;5.70
65316;BMP280;51920;53.952;10.292;2024-02-26T12:58:51;100537.22;;;5.66
65316;BMP280;51920;53.952;10.292;2024-02-26T13:01:21;100541.88;;;5.70
65316;BMP280;51920;53.952;10.292;2024-02-26T13:03:50;100545.72;;;5.69
65316;BMP280;51920;53.952;10.292;2024-02-26T13:06:18;100553.41;;;5.54
65316;BMP280;51920;53.952;10.292;2024-02-26T13:08:46;100557.66;;;5.55
65316;BMP280;51920;53.952;10.292;2024-02-26T13:11:14;100554.38;;;5.62
65316;BMP280;51920;53.952;10.292;2024-02-26T13:13:41;100560.09;;;5.60
65316;BMP280;51920;53.952;10.292;2024-02-26T13:16:13;100556.66;;;5.76
65316;BMP280;51920;53.952;10.292;2024-02-26T13:18:40;100556.97;;;5.58
65316;BMP280;51920;53.952;10.292;2024-02-26T13:21:09;100560.25;;;5.68
65316;BMP280;51920;53.952;10.292;2024-02-26T13:23:38;100558.91;;;5.74
65316;BMP280;51920;53.952;10.292;2024-02-26T13:26:05;100564.44;;;5.81
65316;BMP280;51920;53.952;10.292;2024-02-26T13:28:33;100563.22;;;5.62
65316;BMP280;51920;53.952;10.292;2024-02-26T13:31:01;100569.53;;;5.54
65316;BMP280;51920;53.952;10.292;2024-02-26T13:33:28;100568.94;;;5.77
65316;BMP280;51920;53.952;10.292;2024-02-26T13:35:56;100571.28;;;5.62
65316;BMP280;51920;53.952;10.292;2024-02-26T13:38:24;100580.03;;;5.59
65316;BMP280;51920;53.952;10.292;2024-02-26T13:40:52;100570.66;;;5.53
65316;BMP280;51920;53.952;10.292;2024-02-26T13:43:19;100581.69;;;5.64
65316;BMP280;51920;53.952;10.292;2024-02-26T13:45:46;100582.91;;;5.66
65316;BMP280;51920;53.952;10.292;2024-02-26T13:48:14;100585.50;;;5.63
65316;BMP280;51920;53.952;10.292;2024-02-26T13:50:42;100599.00;;;5.51
65316;BMP280;51920;53.952;10.292;2024-02-26T13:53:13;100602.56;;;5.71
65316;BMP280;51920;53.952;10.292;2024-02-26T13:55:42;100600.75;;;5.75
65316;BMP280;51920;53.952;10.292;2024-02-26T13:58:12;100601.63;;;5.63
65316;BMP280;51920;53.952;10.292;2024-02-26T14:00:40;100605.34;;;5.58
65316;BMP280;51920;53.952;10.292;2024-02-26T14:03:08;100601.63;;;5.63
65316;BMP280;51920;53.952;10.292;2024-02-26T14:05:35;100610.72;;;5.58
65316;BMP280;51920;53.952;10.292;2024-02-26T14:08:02;100611.16;;;5.60